sensor_id;sensor_type;location;lat;lon;timestamp;temperature;humidity
51500;DHT22;39101;53.478;6.158;2023-04-03T00:00:49;3.10;99.90
51500;DHT22;39101;53.478;6.158;2023-04-03T00:03:16;3.10;99.90
51500;DHT22;39101;53.478;6.158;2023-04-03T00:05:41;3.10;99.90
51500;DHT22;39101;53.478;6.158;2023-04-03T00:08:07;3.10;99.90
51500;DHT22;39101;53.478;6.158;2023-04-03T00:10:36;3.70;99.90
51500;DHT22;39101;53.478;6.158;2023-04-03T00:13:03;3.00;99.90
51500;DHT22;39101;53.478;6.158;2023-04-03T00:15:29;3.00;99.90
51500;DHT22;39101;53.478;6.158;2023-04-03T00:17:54;3.00;99.90
51500;DHT22;39101;53.478;6.158;2023-04-03T00:20:20;3.00;99.90
51500;DHT22;39101;53.478;6.158;2023-04-03T00:22:46;2.90;99.90
51500;DHT22;39101;53.478;6.158;2023-04-03T00:25:12;3.00;99.90
51500;DHT22;39101;53.478;6.158;2023-04-03T00:27:38;3.10;99.90
51500;DHT22;39101;53.478;6.158;2023-04-03T00:30:07;2.90;99.90
51500;DHT22;39101;53.478;6.158;2023-04-03T00:32:33;2.90;99.90
51500;DHT22;39101;53.478;6.158;2023-04-03T00:34:58;2.90;99.90
51500;DHT22;39101;53.478;6.158;2023-04-03T00:37:24;3.90;99.90
51500;DHT22;39101;53.478;6.158;2023-04-03T00:39:50;3.00;99.90
51500;DHT22;39101;53.478;6.158;2023-04-03T00:42:16;2.80;99.90
51500;DHT22;39101;53.478;6.158;2023-04-03T00:47:10;2.80;99.90
51500;DHT22;39101;53.478;6.158;2023-04-03T00:49:38;2.70;99.90
51500;DHT22;39101;53.478;6.158;2023-04-03T00:52:06;2.80;99.90
51500;DHT22;39101;53.478;6.158;2023-04-03T00:54:35;2.60;99.90
51500;DHT22;39101;53.478;6.158;2023-04-03T00:57:01;3.10;99.90
51500;DHT22;39101;53.478;6.158;2023-04-03T00:59:33;2.40;99.90
51500;DHT22;39101;53.478;6.158;2023-04-03T01:02:00;2.50;99.90
51500;DHT22;39101;53.478;6.158;2023-04-03T01:04:37;2.40;99.90
51500;DHT22;39101;53.478;6.158;2023-04-03T01:07:28;2.40;99.90
51500;DHT22;39101;53.478;6.158;2023-04-03T01:09:57;2.80;99.90
51500;DHT22;39101;53.478;6.158;2023-04-03T01:12:33;3.20;99.90
51500;DHT22;39101;53.478;6.158;2023-04-03T01:15:02;2.30;99.90
51500;DHT22;39101;53.478;6.158;2023-04-03T01:17:40;2.40;99.90
51500;DHT22;39101;53.478;6.158;2023-04-03T01:25:32;2.20;99.90
51500;DHT22;39101;53.478;6.158;2023-04-03T01:27:58;2.40;99.90
51500;DHT22;39101;53.478;6.158;2023-04-03T01:30:30;2.10;99.90
51500;DHT22;39101;53.478;6.158;2023-04-03T01:32:56;2.10;99.90
51500;DHT22;39101;53.478;6.158;2023-04-03T01:35:22;2.10;99.90
51500;DHT22;39101;53.478;6.158;2023-04-03T01:37:48;2.30;99.90
51500;DHT22;39101;53.478;6.158;2023-04-03T01:40:14;2.00;99.90
51500;DHT22;39101;53.478;6.158;2023-04-03T01:42:39;2.10;99.90
51500;DHT22;39101;53.478;6.158;2023-04-03T01:45:05;2.00;99.90
51500;DHT22;39101;53.478;6.158;2023-04-03T01:47:31;2.00;99.90
51500;DHT22;39101;53.478;6.158;2023-04-03T01:49:57;3.20;99.90
51500;DHT22;39101;53.478;6.158;2023-04-03T01:52:22;1.90;99.90
51500;DHT22;39101;53.478;6.158;2023-04-03T01:54:48;2.60;99.90
51500;DHT22;39101;53.478;6.158;2023-04-03T01:57:14;2.00;99.90
51500;DHT22;39101;53.478;6.158;2023-04-03T01:59:40;1.90;99.90
51500;DHT22;39101;53.478;6.158;2023-04-03T02:02:06;2.00;99.90
51500;DHT22;39101;53.478;6.158;2023-04-03T02:04:32;1.90;99.90
51500;DHT22;39101;53.478;6.158;2023-04-03T02:06:58;1.80;99.90
51500;DHT22;39101;53.478;6.158;2023-04-03T02:09:24;1.80;99.90
51500;DHT22;39101;53.478;6.158;2023-04-03T02:11:49;2.00;99.90
51500;DHT22;39101;53.478;6.158;2023-04-03T02:14:15;1.90;99.90
51500;DHT22;39101;53.478;6.158;2023-04-03T02:16:41;1.80;99.90
51500;DHT22;39101;53.478;6.158;2023-04-03T02:19:07;1.70;99.90
51500;DHT22;39101;53.478;6.158;2023-04-03T02:21:32;2.50;99.90
51500;DHT22;39101;53.478;6.158;2023-04-03T02:23:58;1.60;99.90
51500;DHT22;39101;53.478;6.158;2023-04-03T02:26:24;1.90;99.90
51500;DHT22;39101;53.478;6.158;2023-04-03T02:28:51;1.70;99.90
51500;DHT22;39101;53.478;6.158;2023-04-03T02:31:18;1.60;99.90
51500;DHT22;39101;53.478;6.158;2023-04-03T02:33:43;2.20;99.90
51500;DHT22;39101;53.478;6.158;2023-04-03T02:36:09;1.60;99.90
51500;DHT22;39101;53.478;6.158;2023-04-03T02:38:35;1.80;99.90
51500;DHT22;39101;53.478;6.158;2023-04-03T02:41:03;1.50;99.90
51500;DHT22;39101;53.478;6.158;2023-04-03T02:43:29;1.50;99.90
51500;DHT22;39101;53.478;6.158;2023-04-03T02:45:55;2.60;99.90
51500;DHT22;39101;53.478;6.158;2023-04-03T02:48:21;2.00;99.90
51500;DHT22;39101;53.478;6.158;2023-04-03T02:50:47;2.50;99.90
51500;DHT22;39101;53.478;6.158;2023-04-03T02:53:13;2.60;99.90
51500;DHT22;39101;53.478;6.158;2023-04-03T02:55:39;2.60;99.90
51500;DHT22;39101;53.478;6.158;2023-04-03T02:58:04;1.50;99.90
51500;DHT22;39101;53.478;6.158;2023-04-03T03:00:30;1.70;99.90
51500;DHT22;39101;53.478;6.158;2023-04-03T03:02:56;1.40;99.90
51500;DHT22;39101;53.478;6.158;2023-04-03T03:05:22;1.40;99.90
51500;DHT22;39101;53.478;6.158;2023-04-03T03:07:47;1.50;99.90
51500;DHT22;39101;53.478;6.158;2023-04-03T03:10:13;1.40;99.90
51500;DHT22;39101;53.478;6.158;2023-04-03T03:12:39;1.30;99.90
51500;DHT22;39101;53.478;6.158;2023-04-03T03:15:06;1.20;99.90
51500;DHT22;39101;53.478;6.158;2023-04-03T03:17:32;1.20;99.90
51500;DHT22;39101;53.478;6.158;2023-04-03T03:19:58;1.20;99.90
51500;DHT22;39101;53.478;6.158;2023-04-03T03:22:26;1.30;99.90
51500;DHT22;39101;53.478;6.158;2023-04-03T03:24:51;2.20;99.90
51500;DHT22;39101;53.478;6.158;2023-04-03T03:27:17;1.10;99.90
51500;DHT22;39101;53.478;6.158;2023-04-03T03:29:42;1.10;99.90
51500;DHT22;39101;53.478;6.158;2023-04-03T03:32:08;1.10;99.90
51500;DHT22;39101;53.478;6.158;2023-04-03T03:34:34;1.20;99.90
51500;DHT22;39101;53.478;6.158;2023-04-03T03:37:00;1.10;99.90
51500;DHT22;39101;53.478;6.158;2023-04-03T03:39:26;1.00;99.90
51500;DHT22;39101;53.478;6.158;2023-04-03T03:41:52;1.40;99.90
51500;DHT22;39101;53.478;6.158;2023-04-03T03:44:19;2.10;99.90
51500;DHT22;39101;53.478;6.158;2023-04-03T03:46:45;1.10;99.90
51500;DHT22;39101;53.478;6.158;2023-04-03T03:49:11;2.20;99.90
51500;DHT22;39101;53.478;6.158;2023-04-03T03:51:37;1.20;99.90
51500;DHT22;39101;53.478;6.158;2023-04-03T03:54:04;1.10;99.90
51500;DHT22;39101;53.478;6.158;2023-04-03T03:56:30;0.80;99.90
51500;DHT22;39101;53.478;6.158;2023-04-03T03:58:56;1.40;99.90
51500;DHT22;39101;53.478;6.158;2023-04-03T04:01:22;0.70;99.90
51500;DHT22;39101;53.478;6.158;2023-04-03T04:03:48;1.40;99.90
51500;DHT22;39101;53.478;6.158;2023-04-03T04:06:15;0.80;99.90
51500;DHT22;39101;53.478;6.158;2023-04-03T04:08:41;1.40;99.90
51500;DHT22;39101;53.478;6.158;2023-04-03T04:11:07;0.80;99.90
51500;DHT22;39101;53.478;6.158;2023-04-03T04:13:33;1.50;99.90
51500;DHT22;39101;53.478;6.158;2023-04-03T04:15:58;0.70;99.90
51500;DHT22;39101;53.478;6.158;2023-04-03T04:18:24;0.60;99.90
51500;DHT22;39101;53.478;6.158;2023-04-03T04:20:50;0.80;99.90
51500;DHT22;39101;53.478;6.158;2023-04-03T04:23:16;0.70;99.90
51500;DHT22;39101;53.478;6.158;2023-04-03T04:25:44;0.60;99.90
51500;DHT22;39101;53.478;6.158;2023-04-03T04:28:10;0.70;99.90
51500;DHT22;39101;53.478;6.158;2023-04-03T04:30:36;0.60;99.90
51500;DHT22;39101;53.478;6.158;2023-04-03T04:33:02;0.50;99.90
51500;DHT22;39101;53.478;6.158;2023-04-03T04:35:28;0.50;99.90
51500;DHT22;39101;53.478;6.158;2023-04-03T04:37:53;1.50;99.90
51500;DHT22;39101;53.478;6.158;2023-04-03T04:40:19;0.50;99.90
51500;DHT22;39101;53.478;6.158;2023-04-03T04:42:45;1.60;99.90
51500;DHT22;39101;53.478;6.158;2023-04-03T04:45:11;0.50;99.90
51500;DHT22;39101;53.478;6.158;2023-04-03T04:47:36;0.50;99.90
51500;DHT22;39101;53.478;6.158;2023-04-03T04:50:02;0.40;99.90
51500;DHT22;39101;53.478;6.158;2023-04-03T04:52:28;0.40;99.90
51500;DHT22;39101;53.478;6.158;2023-04-03T04:54:54;0.30;99.90
51500;DHT22;39101;53.478;6.158;2023-04-03T04:57:19;0.30;99.90
51500;DHT22;39101;53.478;6.158;2023-04-03T04:59:45;0.50;99.90
51500;DHT22;39101;53.478;6.158;2023-04-03T05:02:11;0.40;99.90
51500;DHT22;39101;53.478;6.158;2023-04-03T05:04:37;0.40;99.90
51500;DHT22;39101;53.478;6.158;2023-04-03T05:07:02;1.00;99.90
51500;DHT22;39101;53.478;6.158;2023-04-03T05:09:28;1.00;99.90
51500;DHT22;39101;53.478;6.158;2023-04-03T05:11:54;0.30;99.90
51500;DHT22;39101;53.478;6.158;2023-04-03T05:14:19;0.20;99.90
51500;DHT22;39101;53.478;6.158;2023-04-03T05:16:45;0.30;99.90
51500;DHT22;39101;53.478;6.158;2023-04-03T05:19:11;0.40;99.90
51500;DHT22;39101;53.478;6.158;2023-04-03T05:21:36;0.30;99.90
51500;DHT22;39101;53.478;6.158;2023-04-03T05:24:02;0.60;99.90
51500;DHT22;39101;53.478;6.158;2023-04-03T05:26:29;0.40;99.90
51500;DHT22;39101;53.478;6.158;2023-04-03T05:28:55;0.30;99.90
51500;DHT22;39101;53.478;6.158;2023-04-03T05:31:21;0.50;99.90
51500;DHT22;39101;53.478;6.158;2023-04-03T05:33:48;0.30;99.90
51500;DHT22;39101;53.478;6.158;2023-04-03T05:36:14;1.50;99.90
51500;DHT22;39101;53.478;6.158;2023-04-03T05:38:39;1.70;99.90
51500;DHT22;39101;53.478;6.158;2023-04-03T05:41:05;0.60;99.90
51500;DHT22;39101;53.478;6.158;2023-04-03T05:43:31;1.60;99.90
51500;DHT22;39101;53.478;6.158;2023-04-03T05:45:58;0.60;99.90
51500;DHT22;39101;53.478;6.158;2023-04-03T05:48:23;0.70;99.90
51500;DHT22;39101;53.478;6.158;2023-04-03T05:50:49;1.70;99.90
51500;DHT22;39101;53.478;6.158;2023-04-03T05:53:22;0.70;99.90
51500;DHT22;39101;53.478;6.158;2023-04-03T05:55:50;0.90;99.90
51500;DHT22;39101;53.478;6.158;2023-04-03T05:58:15;1.00;99.90
51500;DHT22;39101;53.478;6.158;2023-04-03T06:00:41;1.30;99.90
51500;DHT22;39101;53.478;6.158;2023-04-03T06:03:07;1.00;99.90
51500;DHT22;39101;53.478;6.158;2023-04-03T06:05:32;1.20;99.90
51500;DHT22;39101;53.478;6.158;2023-04-03T06:07:58;1.30;99.90
51500;DHT22;39101;53.478;6.158;2023-04-03T06:10:24;1.40;99.90
51500;DHT22;39101;53.478;6.158;2023-04-03T06:12:50;1.40;99.90
51500;DHT22;39101;53.478;6.158;2023-04-03T06:15:16;1.50;99.90
51500;DHT22;39101;53.478;6.158;2023-04-03T06:17:42;1.70;99.90
51500;DHT22;39101;53.478;6.158;2023-04-03T06:20:08;1.70;99.90
51500;DHT22;39101;53.478;6.158;2023-04-03T06:22:35;1.70;99.90
51500;DHT22;39101;53.478;6.158;2023-04-03T06:25:01;1.90;99.90
51500;DHT22;39101;53.478;6.158;2023-04-03T06:27:27;2.00;99.90
51500;DHT22;39101;53.478;6.158;2023-04-03T06:29:52;3.00;99.90
51500;DHT22;39101;53.478;6.158;2023-04-03T06:32:18;2.10;99.90
51500;DHT22;39101;53.478;6.158;2023-04-03T06:34:44;2.60;99.90
51500;DHT22;39101;53.478;6.158;2023-04-03T06:37:19;2.50;99.90
51500;DHT22;39101;53.478;6.158;2023-04-03T06:39:46;2.40;99.90
51500;DHT22;39101;53.478;6.158;2023-04-03T06:42:11;2.40;99.90
51500;DHT22;39101;53.478;6.158;2023-04-03T06:44:37;2.50;99.90
51500;DHT22;39101;53.478;6.158;2023-04-03T06:47:03;3.00;99.90
51500;DHT22;39101;53.478;6.158;2023-04-03T06:49:29;2.70;99.90
51500;DHT22;39101;53.478;6.158;2023-04-03T06:51:55;2.70;99.90
51500;DHT22;39101;53.478;6.158;2023-04-03T06:54:21;2.70;99.90
51500;DHT22;39101;53.478;6.158;2023-04-03T06:56:47;2.80;99.90
51500;DHT22;39101;53.478;6.158;2023-04-03T06:59:13;3.00;99.90
51500;DHT22;39101;53.478;6.158;2023-04-03T07:01:40;4.20;99.90
51500;DHT22;39101;53.478;6.158;2023-04-03T07:04:06;3.00;99.90
51500;DHT22;39101;53.478;6.158;2023-04-03T07:06:33;3.10;99.90
51500;DHT22;39101;53.478;6.158;2023-04-03T07:08:59;3.20;99.90
51500;DHT22;39101;53.478;6.158;2023-04-03T07:11:25;3.20;99.90
51500;DHT22;39101;53.478;6.158;2023-04-03T07:13:52;3.60;99.90
51500;DHT22;39101;53.478;6.158;2023-04-03T07:16:18;3.30;99.90
51500;DHT22;39101;53.478;6.158;2023-04-03T07:18:44;3.50;99.90
51500;DHT22;39101;53.478;6.158;2023-04-03T07:21:11;3.40;99.90
51500;DHT22;39101;53.478;6.158;2023-04-03T07:23:37;3.50;99.90
51500;DHT22;39101;53.478;6.158;2023-04-03T07:26:03;3.70;99.90
51500;DHT22;39101;53.478;6.158;2023-04-03T07:28:28;3.70;99.90
51500;DHT22;39101;53.478;6.158;2023-04-03T07:31:06;3.70;99.90
51500;DHT22;39101;53.478;6.158;2023-04-03T07:33:34;3.90;99.90
51500;DHT22;39101;53.478;6.158;2023-04-03T07:36:00;3.90;99.90
51500;DHT22;39101;53.478;6.158;2023-04-03T07:38:26;4.00;99.90
51500;DHT22;39101;53.478;6.158;2023-04-03T07:40:52;4.00;99.90
51500;DHT22;39101;53.478;6.158;2023-04-03T07:43:19;4.10;99.90
51500;DHT22;39101;53.478;6.158;2023-04-03T07:45:46;4.40;99.90
51500;DHT22;39101;53.478;6.158;2023-04-03T07:48:13;4.10;99.90
51500;DHT22;39101;53.478;6.158;2023-04-03T07:50:42;4.20;99.90
51500;DHT22;39101;53.478;6.158;2023-04-03T07:53:08;4.20;99.90
51500;DHT22;39101;53.478;6.158;2023-04-03T07:55:34;4.30;99.90
51500;DHT22;39101;53.478;6.158;2023-04-03T07:58:05;4.30;99.90
51500;DHT22;39101;53.478;6.158;2023-04-03T08:00:31;4.30;99.90
51500;DHT22;39101;53.478;6.158;2023-04-03T08:02:57;4.40;99.90
51500;DHT22;39101;53.478;6.158;2023-04-03T08:05:22;4.80;99.90
51500;DHT22;39101;53.478;6.158;2023-04-03T08:07:48;4.60;99.90
51500;DHT22;39101;53.478;6.158;2023-04-03T08:10:14;4.70;99.90
51500;DHT22;39101;53.478;6.158;2023-04-03T08:12:40;4.70;99.90
51500;DHT22;39101;53.478;6.158;2023-04-03T08:15:07;4.70;99.90
51500;DHT22;39101;53.478;6.158;2023-04-03T08:17:34;4.80;99.90
51500;DHT22;39101;53.478;6.158;2023-04-03T08:20:00;4.70;99.90
51500;DHT22;39101;53.478;6.158;2023-04-03T08:22:26;5.10;99.90
51500;DHT22;39101;53.478;6.158;2023-04-03T08:24:51;5.00;99.90
51500;DHT22;39101;53.478;6.158;2023-04-03T08:27:17;5.40;99.90
51500;DHT22;39101;53.478;6.158;2023-04-03T08:29:43;5.10;99.90
51500;DHT22;39101;53.478;6.158;2023-04-03T08:32:08;5.20;99.90
51500;DHT22;39101;53.478;6.158;2023-04-03T08:34:35;5.40;99.90
51500;DHT22;39101;53.478;6.158;2023-04-03T08:37:02;5.70;99.90
51500;DHT22;39101;53.478;6.158;2023-04-03T08:39:28;5.30;99.90
51500;DHT22;39101;53.478;6.158;2023-04-03T08:41:58;5.40;99.90
51500;DHT22;39101;53.478;6.158;2023-04-03T08:44:56;5.60;99.90
51500;DHT22;39101;53.478;6.158;2023-04-03T08:50:29;5.60;99.90
51500;DHT22;39101;53.478;6.158;2023-04-03T08:52:59;5.70;99.90
51500;DHT22;39101;53.478;6.158;2023-04-03T08:55:29;5.80;99.90
51500;DHT22;39101;53.478;6.158;2023-04-03T08:58:02;5.90;99.90
51500;DHT22;39101;53.478;6.158;2023-04-03T09:03:13;5.90;99.90
51500;DHT22;39101;53.478;6.158;2023-04-03T09:08:29;6.10;99.90
51500;DHT22;39101;53.478;6.158;2023-04-03T09:11:55;6.10;99.90
51500;DHT22;39101;53.478;6.158;2023-04-03T09:17:03;6.30;99.90
51500;DHT22;39101;53.478;6.158;2023-04-03T09:22:27;6.40;99.90
51500;DHT22;39101;53.478;6.158;2023-04-03T09:25:13;6.40;99.90
51500;DHT22;39101;53.478;6.158;2023-04-03T09:27:39;6.40;99.90
51500;DHT22;39101;53.478;6.158;2023-04-03T09:30:08;6.60;99.90
51500;DHT22;39101;53.478;6.158;2023-04-03T09:32:37;6.60;99.90
51500;DHT22;39101;53.478;6.158;2023-04-03T09:40:44;7.00;99.90
51500;DHT22;39101;53.478;6.158;2023-04-03T09:45:43;6.90;99.90
51500;DHT22;39101;53.478;6.158;2023-04-03T09:51:01;7.10;99.90
51500;DHT22;39101;53.478;6.158;2023-04-03T09:53:42;7.00;99.90
51500;DHT22;39101;53.478;6.158;2023-04-03T09:59:07;7.20;99.90
51500;DHT22;39101;53.478;6.158;2023-04-03T10:01:39;7.20;99.90
51500;DHT22;39101;53.478;6.158;2023-04-03T10:04:15;7.20;99.90
51500;DHT22;39101;53.478;6.158;2023-04-03T10:06:44;7.30;99.90
51500;DHT22;39101;53.478;6.158;2023-04-03T10:12:03;7.40;99.90
51500;DHT22;39101;53.478;6.158;2023-04-03T10:14:32;7.50;99.90
51500;DHT22;39101;53.478;6.158;2023-04-03T10:17:18;7.50;99.90
51500;DHT22;39101;53.478;6.158;2023-04-03T10:50:23;8.10;99.90
51500;DHT22;39101;53.478;6.158;2023-04-03T10:57:54;8.30;99.90
51500;DHT22;39101;53.478;6.158;2023-04-03T11:00:26;8.30;99.90
51500;DHT22;39101;53.478;6.158;2023-04-03T11:03:06;8.40;99.90
51500;DHT22;39101;53.478;6.158;2023-04-03T11:05:41;8.40;99.90
51500;DHT22;39101;53.478;6.158;2023-04-03T11:08:19;8.50;99.90
51500;DHT22;39101;53.478;6.158;2023-04-03T11:10:49;8.50;99.90
51500;DHT22;39101;53.478;6.158;2023-04-03T11:16:04;8.60;99.90
51500;DHT22;39101;53.478;6.158;2023-04-03T11:18:44;8.70;99.90
51500;DHT22;39101;53.478;6.158;2023-04-03T11:23:45;8.80;99.90
51500;DHT22;39101;53.478;6.158;2023-04-03T11:26:14;8.60;99.90
51500;DHT22;39101;53.478;6.158;2023-04-03T11:28:41;8.70;99.90
51500;DHT22;39101;53.478;6.158;2023-04-03T11:31:24;8.70;99.90
51500;DHT22;39101;53.478;6.158;2023-04-03T11:36:52;8.70;99.90
51500;DHT22;39101;53.478;6.158;2023-04-03T11:39:23;8.80;99.90
51500;DHT22;39101;53.478;6.158;2023-04-03T11:41:51;8.80;99.90
51500;DHT22;39101;53.478;6.158;2023-04-03T11:44:37;8.90;99.90
51500;DHT22;39101;53.478;6.158;2023-04-03T11:47:10;8.90;99.90
51500;DHT22;39101;53.478;6.158;2023-04-03T11:49:57;8.90;99.90
51500;DHT22;39101;53.478;6.158;2023-04-03T12:00:50;8.90;99.90
51500;DHT22;39101;53.478;6.158;2023-04-03T12:34:49;8.90;99.90
51500;DHT22;39101;53.478;6.158;2023-04-03T12:37:43;8.90;99.90
51500;DHT22;39101;53.478;6.158;2023-04-03T12:48:58;8.90;99.90
51500;DHT22;39101;53.478;6.158;2023-04-03T12:51:38;8.90;99.90
51500;DHT22;39101;53.478;6.158;2023-04-03T12:54:34;8.90;99.90
51500;DHT22;39101;53.478;6.158;2023-04-03T12:57:18;8.90;99.90
51500;DHT22;39101;53.478;6.158;2023-04-03T12:59:44;8.90;99.90
51500;DHT22;39101;53.478;6.158;2023-04-03T13:02:24;8.90;99.90
51500;DHT22;39101;53.478;6.158;2023-04-03T13:05:04;8.80;99.90
51500;DHT22;39101;53.478;6.158;2023-04-03T13:07:33;8.80;99.90
51500;DHT22;39101;53.478;6.158;2023-04-03T13:10:20;8.70;99.90
51500;DHT22;39101;53.478;6.158;2023-04-03T13:12:52;8.60;99.90
51500;DHT22;39101;53.478;6.158;2023-04-03T13:15:30;8.60;99.90
51500;DHT22;39101;53.478;6.158;2023-04-03T13:18:05;8.50;99.90
51500;DHT22;39101;53.478;6.158;2023-04-03T13:20:46;8.50;99.90
51500;DHT22;39101;53.478;6.158;2023-04-03T13:23:17;8.50;99.90
51500;DHT22;39101;53.478;6.158;2023-04-03T13:25:45;8.50;99.90
51500;DHT22;39101;53.478;6.158;2023-04-03T13:28:18;8.60;99.90
51500;DHT22;39101;53.478;6.158;2023-04-03T13:30:59;8.60;99.90
51500;DHT22;39101;53.478;6.158;2023-04-03T13:33:29;8.50;99.90
51500;DHT22;39101;53.478;6.158;2023-04-03T13:36:20;8.50;99.90
51500;DHT22;39101;53.478;6.158;2023-04-03T13:38:58;8.40;99.90
51500;DHT22;39101;53.478;6.158;2023-04-03T13:41:31;8.50;99.90
51500;DHT22;39101;53.478;6.158;2023-04-03T13:44:22;8.50;99.90
51500;DHT22;39101;53.478;6.158;2023-04-03T13:49:36;8.50;99.90
51500;DHT22;39101;53.478;6.158;2023-04-03T13:52:25;8.40;99.90
51500;DHT22;39101;53.478;6.158;2023-04-03T13:55:01;8.50;99.90
51500;DHT22;39101;53.478;6.158;2023-04-03T13:57:28;8.40;99.90
51500;DHT22;39101;53.478;6.158;2023-04-03T13:59:54;8.30;99.90
51500;DHT22;39101;53.478;6.158;2023-04-03T14:02:32;8.40;99.90
51500;DHT22;39101;53.478;6.158;2023-04-03T14:05:00;8.50;99.90
51500;DHT22;39101;53.478;6.158;2023-04-03T14:07:29;8.70;99.90
51500;DHT22;39101;53.478;6.158;2023-04-03T14:09:56;8.80;99.90
51500;DHT22;39101;53.478;6.158;2023-04-03T14:12:34;8.80;99.90
51500;DHT22;39101;53.478;6.158;2023-04-03T14:15:03;8.80;99.90
51500;DHT22;39101;53.478;6.158;2023-04-03T14:17:29;9.00;99.90
51500;DHT22;39101;53.478;6.158;2023-04-03T14:19:56;9.20;99.90
51500;DHT22;39101;53.478;6.158;2023-04-03T14:22:25;9.30;99.90
51500;DHT22;39101;53.478;6.158;2023-04-03T14:24:52;9.40;99.90
51500;DHT22;39101;53.478;6.158;2023-04-03T14:27:43;9.30;99.90
51500;DHT22;39101;53.478;6.158;2023-04-03T14:30:29;9.30;99.90
51500;DHT22;39101;53.478;6.158;2023-04-03T14:32:55;9.10;99.90
51500;DHT22;39101;53.478;6.158;2023-04-03T14:35:22;9.20;99.90
51500;DHT22;39101;53.478;6.158;2023-04-03T14:37:48;9.50;99.90
51500;DHT22;39101;53.478;6.158;2023-04-03T14:40:24;9.80;99.90
51500;DHT22;39101;53.478;6.158;2023-04-03T14:42:51;10.10;99.90
51500;DHT22;39101;53.478;6.158;2023-04-03T14:45:17;10.10;99.90
51500;DHT22;39101;53.478;6.158;2023-04-03T14:47:49;10.00;99.90
51500;DHT22;39101;53.478;6.158;2023-04-03T14:50:18;9.90;99.90
51500;DHT22;39101;53.478;6.158;2023-04-03T14:52:44;10.00;99.90
51500;DHT22;39101;53.478;6.158;2023-04-03T14:55:14;10.20;99.90
51500;DHT22;39101;53.478;6.158;2023-04-03T14:57:40;10.20;99.90
51500;DHT22;39101;53.478;6.158;2023-04-03T15:00:07;10.00;99.90
51500;DHT22;39101;53.478;6.158;2023-04-03T15:02:37;9.80;99.90
51500;DHT22;39101;53.478;6.158;2023-04-03T15:05:06;9.60;99.90
51500;DHT22;39101;53.478;6.158;2023-04-03T15:07:41;9.50;99.90
51500;DHT22;39101;53.478;6.158;2023-04-03T15:10:28;9.40;99.90
51500;DHT22;39101;53.478;6.158;2023-04-03T15:12:55;9.10;99.90
51500;DHT22;39101;53.478;6.158;2023-04-03T15:15:22;8.90;99.90
51500;DHT22;39101;53.478;6.158;2023-04-03T15:17:52;8.90;99.90
51500;DHT22;39101;53.478;6.158;2023-04-03T15:20:22;8.80;99.90
51500;DHT22;39101;53.478;6.158;2023-04-03T15:22:48;8.90;99.90
51500;DHT22;39101;53.478;6.158;2023-04-03T15:25:15;8.90;99.90
51500;DHT22;39101;53.478;6.158;2023-04-03T15:27:41;9.20;99.90
51500;DHT22;39101;53.478;6.158;2023-04-03T15:30:11;9.40;99.90
51500;DHT22;39101;53.478;6.158;2023-04-03T15:32:38;9.60;99.90
51500;DHT22;39101;53.478;6.158;2023-04-03T15:35:04;9.80;99.90
51500;DHT22;39101;53.478;6.158;2023-04-03T15:37:30;10.00;99.90
51500;DHT22;39101;53.478;6.158;2023-04-03T15:39:56;10.50;99.90
51500;DHT22;39101;53.478;6.158;2023-04-03T15:42:21;10.80;99.90
51500;DHT22;39101;53.478;6.158;2023-04-03T15:44:47;11.00;99.90
51500;DHT22;39101;53.478;6.158;2023-04-03T15:47:13;10.90;99.90
51500;DHT22;39101;53.478;6.158;2023-04-03T15:49:39;11.00;99.90
51500;DHT22;39101;53.478;6.158;2023-04-03T15:52:04;11.30;99.90
51500;DHT22;39101;53.478;6.158;2023-04-03T15:54:31;11.20;99.90
51500;DHT22;39101;53.478;6.158;2023-04-03T15:56:57;11.00;99.90
51500;DHT22;39101;53.478;6.158;2023-04-03T15:59:22;11.10;99.90
51500;DHT22;39101;53.478;6.158;2023-04-03T16:01:49;11.00;99.90
51500;DHT22;39101;53.478;6.158;2023-04-03T16:04:16;11.00;99.90
51500;DHT22;39101;53.478;6.158;2023-04-03T16:06:42;11.10;99.90
51500;DHT22;39101;53.478;6.158;2023-04-03T16:09:08;11.00;99.90
51500;DHT22;39101;53.478;6.158;2023-04-03T16:11:34;11.00;99.90
51500;DHT22;39101;53.478;6.158;2023-04-03T16:14:01;11.00;99.90
51500;DHT22;39101;53.478;6.158;2023-04-03T16:16:27;10.80;99.90
51500;DHT22;39101;53.478;6.158;2023-04-03T16:18:54;10.60;99.90
51500;DHT22;39101;53.478;6.158;2023-04-03T16:21:20;10.40;99.90
51500;DHT22;39101;53.478;6.158;2023-04-03T16:23:46;10.20;99.90
51500;DHT22;39101;53.478;6.158;2023-04-03T16:26:12;10.00;99.90
51500;DHT22;39101;53.478;6.158;2023-04-03T16:28:38;10.10;99.90
51500;DHT22;39101;53.478;6.158;2023-04-03T16:31:05;10.40;99.90
51500;DHT22;39101;53.478;6.158;2023-04-03T16:33:31;10.60;99.90
51500;DHT22;39101;53.478;6.158;2023-04-03T16:35:57;10.60;99.90
51500;DHT22;39101;53.478;6.158;2023-04-03T16:38:23;10.60;99.90
51500;DHT22;39101;53.478;6.158;2023-04-03T16:40:49;10.70;99.90
51500;DHT22;39101;53.478;6.158;2023-04-03T16:43:15;11.20;99.90
51500;DHT22;39101;53.478;6.158;2023-04-03T16:45:42;11.30;99.90
51500;DHT22;39101;53.478;6.158;2023-04-03T16:48:08;11.30;99.90
51500;DHT22;39101;53.478;6.158;2023-04-03T16:50:34;11.40;99.90
51500;DHT22;39101;53.478;6.158;2023-04-03T16:52:59;11.30;99.90
51500;DHT22;39101;53.478;6.158;2023-04-03T16:55:25;11.40;99.90
51500;DHT22;39101;53.478;6.158;2023-04-03T16:57:51;11.70;99.90
51500;DHT22;39101;53.478;6.158;2023-04-03T17:00:16;11.90;99.90
51500;DHT22;39101;53.478;6.158;2023-04-03T17:02:42;11.90;99.90
51500;DHT22;39101;53.478;6.158;2023-04-03T17:05:08;12.10;99.90
51500;DHT22;39101;53.478;6.158;2023-04-03T17:07:34;11.70;99.90
51500;DHT22;39101;53.478;6.158;2023-04-03T17:10:00;11.50;99.90
51500;DHT22;39101;53.478;6.158;2023-04-03T17:12:25;11.00;99.90
51500;DHT22;39101;53.478;6.158;2023-04-03T17:14:51;10.70;99.90
51500;DHT22;39101;53.478;6.158;2023-04-03T17:17:22;10.60;99.90
51500;DHT22;39101;53.478;6.158;2023-04-03T17:19:48;10.10;99.90
51500;DHT22;39101;53.478;6.158;2023-04-03T17:22:14;9.70;99.90
51500;DHT22;39101;53.478;6.158;2023-04-03T17:24:42;9.40;99.90
51500;DHT22;39101;53.478;6.158;2023-04-03T17:27:07;9.00;99.90
51500;DHT22;39101;53.478;6.158;2023-04-03T17:29:33;8.80;99.90
51500;DHT22;39101;53.478;6.158;2023-04-03T17:31:59;8.40;99.90
51500;DHT22;39101;53.478;6.158;2023-04-03T17:34:24;8.10;99.90
51500;DHT22;39101;53.478;6.158;2023-04-03T17:36:50;7.90;99.90
51500;DHT22;39101;53.478;6.158;2023-04-03T17:39:16;7.70;99.90
51500;DHT22;39101;53.478;6.158;2023-04-03T17:41:41;7.50;99.90
51500;DHT22;39101;53.478;6.158;2023-04-03T17:44:07;7.40;99.90
51500;DHT22;39101;53.478;6.158;2023-04-03T17:46:33;7.30;99.90
51500;DHT22;39101;53.478;6.158;2023-04-03T17:48:58;6.90;99.90
51500;DHT22;39101;53.478;6.158;2023-04-03T17:51:25;6.80;99.90
51500;DHT22;39101;53.478;6.158;2023-04-03T17:53:52;6.60;99.90
51500;DHT22;39101;53.478;6.158;2023-04-03T17:56:23;6.50;99.90
51500;DHT22;39101;53.478;6.158;2023-04-03T17:58:52;6.30;99.90
51500;DHT22;39101;53.478;6.158;2023-04-03T18:01:38;6.30;99.90
51500;DHT22;39101;53.478;6.158;2023-04-03T18:04:05;6.00;99.90
51500;DHT22;39101;53.478;6.158;2023-04-03T18:06:35;5.90;99.90